sensor_id;sensor_type;location;lat;lon;timestamp;P1;durP1;ratioP1;P2;durP2;ratioP2
12792;SDS011;6460;42.684;23.260;2023-04-25T00:01:53;3.73;;;2.33;;
12792;SDS011;6460;42.684;23.260;2023-04-25T00:04:20;3.17;;;2.30;;
12792;SDS011;6460;42.684;23.260;2023-04-25T00:06:49;3.43;;;2.67;;
12792;SDS011;6460;42.684;23.260;2023-04-25T00:09:17;3.03;;;2.63;;
12792;SDS011;6460;42.684;23.260;2023-04-25T00:11:44;4.17;;;3.20;;
12792;SDS011;6460;42.684;23.260;2023-04-25T00:14:11;4.43;;;3.37;;
12792;SDS011;6460;42.684;23.260;2023-04-25T00:16:38;3.83;;;3.00;;
12792;SDS011;6460;42.684;23.260;2023-04-25T00:19:06;3.57;;;3.20;;
12792;SDS011;6460;42.684;23.260;2023-04-25T00:21:34;3.23;;;2.93;;
12792;SDS011;6460;42.684;23.260;2023-04-25T00:24:04;3.07;;;2.80;;
12792;SDS011;6460;42.684;23.260;2023-04-25T00:26:33;3.40;;;2.90;;
12792;SDS011;6460;42.684;23.260;2023-04-25T00:29:01;3.27;;;2.97;;
12792;SDS011;6460;42.684;23.260;2023-04-25T00:31:28;3.60;;;2.90;;
12792;SDS011;6460;42.684;23.260;2023-04-25T00:33:55;4.40;;;2.80;;
12792;SDS011;6460;42.684;23.260;2023-04-25T00:36:22;4.77;;;2.90;;
12792;SDS011;6460;42.684;23.260;2023-04-25T00:38:49;2.37;;;2.17;;
12792;SDS011;6460;42.684;23.260;2023-04-25T00:41:18;3.23;;;2.20;;
12792;SDS011;6460;42.684;23.260;2023-04-25T00:43:46;2.33;;;2.00;;
12792;SDS011;6460;42.684;23.260;2023-04-25T00:46:14;1.93;;;1.80;;
12792;SDS011;6460;42.684;23.260;2023-04-25T00:48:42;2.87;;;1.77;;
12792;SDS011;6460;42.684;23.260;2023-04-25T00:51:15;2.03;;;1.80;;
12792;SDS011;6460;42.684;23.260;2023-04-25T00:53:45;1.57;;;1.47;;
12792;SDS011;6460;42.684;23.260;2023-04-25T00:56:13;3.07;;;1.77;;
12792;SDS011;6460;42.684;23.260;2023-04-25T00:58:42;1.87;;;1.70;;
12792;SDS011;6460;42.684;23.260;2023-04-25T01:01:09;2.40;;;1.53;;
12792;SDS011;6460;42.684;23.260;2023-04-25T01:03:38;1.23;;;1.13;;
12792;SDS011;6460;42.684;23.260;2023-04-25T01:06:07;1.40;;;1.00;;
12792;SDS011;6460;42.684;23.260;2023-04-25T01:08:35;1.40;;;1.23;;
12792;SDS011;6460;42.684;23.260;2023-04-25T01:11:03;1.40;;;1.30;;
12792;SDS011;6460;42.684;23.260;2023-04-25T01:13:31;2.83;;;2.27;;
12792;SDS011;6460;42.684;23.260;2023-04-25T01:16:00;2.50;;;2.10;;
12792;SDS011;6460;42.684;23.260;2023-04-25T01:18:29;4.03;;;2.77;;
12792;SDS011;6460;42.684;23.260;2023-04-25T01:20:56;4.60;;;2.90;;
12792;SDS011;6460;42.684;23.260;2023-04-25T01:23:33;2.50;;;2.30;;
12792;SDS011;6460;42.684;23.260;2023-04-25T01:26:00;3.40;;;2.60;;
12792;SDS011;6460;42.684;23.260;2023-04-25T01:28:28;2.57;;;2.37;;
12792;SDS011;6460;42.684;23.260;2023-04-25T01:30:55;3.63;;;2.47;;
12792;SDS011;6460;42.684;23.260;2023-04-25T01:33:23;3.37;;;2.53;;
12792;SDS011;6460;42.684;23.260;2023-04-25T01:35:50;2.37;;;2.13;;
12792;SDS011;6460;42.684;23.260;2023-04-25T01:38:19;2.73;;;1.90;;
12792;SDS011;6460;42.684;23.260;2023-04-25T01:40:46;1.93;;;1.77;;
12792;SDS011;6460;42.684;23.260;2023-04-25T01:43:17;1.87;;;1.77;;
12792;SDS011;6460;42.684;23.260;2023-04-25T01:45:44;2.73;;;1.70;;
12792;SDS011;6460;42.684;23.260;2023-04-25T01:48:12;3.23;;;1.90;;
12792;SDS011;6460;42.684;23.260;2023-04-25T01:50:40;2.63;;;1.63;;
12792;SDS011;6460;42.684;23.260;2023-04-25T01:53:07;2.17;;;1.97;;
12792;SDS011;6460;42.684;23.260;2023-04-25T01:55:37;2.63;;;2.20;;
12792;SDS011;6460;42.684;23.260;2023-04-25T01:58:04;4.10;;;1.83;;
12792;SDS011;6460;42.684;23.260;2023-04-25T02:00:34;1.80;;;1.70;;
12792;SDS011;6460;42.684;23.260;2023-04-25T02:03:03;1.97;;;1.70;;
12792;SDS011;6460;42.684;23.260;2023-04-25T02:05:33;2.40;;;2.20;;
12792;SDS011;6460;42.684;23.260;2023-04-25T02:08:02;2.27;;;1.97;;
12792;SDS011;6460;42.684;23.260;2023-04-25T02:10:29;2.57;;;2.20;;
12792;SDS011;6460;42.684;23.260;2023-04-25T02:12:58;4.27;;;2.57;;
12792;SDS011;6460;42.684;23.260;2023-04-25T02:15:25;4.40;;;2.53;;
12792;SDS011;6460;42.684;23.260;2023-04-25T02:17:53;3.90;;;2.40;;
12792;SDS011;6460;42.684;23.260;2023-04-25T02:20:20;2.50;;;2.30;;
12792;SDS011;6460;42.684;23.260;2023-04-25T02:22:48;2.93;;;2.40;;
12792;SDS011;6460;42.684;23.260;2023-04-25T02:25:15;2.60;;;2.20;;
12792;SDS011;6460;42.684;23.260;2023-04-25T02:27:43;3.20;;;2.67;;
12792;SDS011;6460;42.684;23.260;2023-04-25T02:30:12;2.60;;;2.30;;
12792;SDS011;6460;42.684;23.260;2023-04-25T02:32:40;3.10;;;2.80;;
12792;SDS011;6460;42.684;23.260;2023-04-25T02:35:07;3.27;;;2.50;;
12792;SDS011;6460;42.684;23.260;2023-04-25T02:37:36;2.70;;;2.37;;
12792;SDS011;6460;42.684;23.260;2023-04-25T02:40:05;3.53;;;3.20;;
12792;SDS011;6460;42.684;23.260;2023-04-25T02:42:33;5.50;;;3.10;;
12792;SDS011;6460;42.684;23.260;2023-04-25T02:45:00;4.13;;;3.57;;
12792;SDS011;6460;42.684;23.260;2023-04-25T02:47:29;3.63;;;3.27;;
12792;SDS011;6460;42.684;23.260;2023-04-25T02:49:56;3.63;;;3.17;;
12792;SDS011;6460;42.684;23.260;2023-04-25T02:52:23;4.87;;;3.40;;
12792;SDS011;6460;42.684;23.260;2023-04-25T02:54:50;4.27;;;3.57;;
12792;SDS011;6460;42.684;23.260;2023-04-25T02:57:17;4.50;;;3.43;;
12792;SDS011;6460;42.684;23.260;2023-04-25T02:59:45;5.70;;;3.70;;
12792;SDS011;6460;42.684;23.260;2023-04-25T03:02:12;5.17;;;3.37;;
12792;SDS011;6460;42.684;23.260;2023-04-25T03:04:40;5.20;;;4.23;;
12792;SDS011;6460;42.684;23.260;2023-04-25T03:07:08;5.80;;;3.73;;
12792;SDS011;6460;42.684;23.260;2023-04-25T03:09:35;4.70;;;4.20;;
12792;SDS011;6460;42.684;23.260;2023-04-25T03:12:02;8.37;;;5.10;;
12792;SDS011;6460;42.684;23.260;2023-04-25T03:14:30;6.77;;;5.27;;
12792;SDS011;6460;42.684;23.260;2023-04-25T03:16:57;6.20;;;4.70;;
12792;SDS011;6460;42.684;23.260;2023-04-25T03:19:24;5.13;;;4.60;;
12792;SDS011;6460;42.684;23.260;2023-04-25T03:21:53;5.97;;;4.80;;
12792;SDS011;6460;42.684;23.260;2023-04-25T03:24:20;6.57;;;4.90;;
12792;SDS011;6460;42.684;23.260;2023-04-25T03:26:47;6.87;;;4.83;;
12792;SDS011;6460;42.684;23.260;2023-04-25T03:29:14;6.07;;;4.97;;
12792;SDS011;6460;42.684;23.260;2023-04-25T03:31:42;6.87;;;5.40;;
12792;SDS011;6460;42.684;23.260;2023-04-25T03:34:09;6.00;;;4.77;;
12792;SDS011;6460;42.684;23.260;2023-04-25T03:36:36;7.80;;;5.50;;
12792;SDS011;6460;42.684;23.260;2023-04-25T03:39:05;7.03;;;5.33;;
12792;SDS011;6460;42.684;23.260;2023-04-25T03:41:32;6.83;;;5.30;;
12792;SDS011;6460;42.684;23.260;2023-04-25T03:43:59;8.40;;;5.30;;
12792;SDS011;6460;42.684;23.260;2023-04-25T03:46:26;8.37;;;5.70;;
12792;SDS011;6460;42.684;23.260;2023-04-25T03:48:53;7.33;;;5.83;;
12792;SDS011;6460;42.684;23.260;2023-04-25T03:51:20;7.10;;;5.57;;
12792;SDS011;6460;42.684;23.260;2023-04-25T03:53:47;9.63;;;7.10;;
12792;SDS011;6460;42.684;23.260;2023-04-25T03:56:16;7.73;;;5.97;;
12792;SDS011;6460;42.684;23.260;2023-04-25T03:58:43;8.47;;;6.50;;
12792;SDS011;6460;42.684;23.260;2023-04-25T04:01:10;8.40;;;6.87;;
12792;SDS011;6460;42.684;23.260;2023-04-25T04:03:37;9.23;;;7.50;;
12792;SDS011;6460;42.684;23.260;2023-04-25T04:06:05;7.63;;;6.80;;
12792;SDS011;6460;42.684;23.260;2023-04-25T04:08:34;9.07;;;7.27;;
12792;SDS011;6460;42.684;23.260;2023-04-25T04:11:01;10.40;;;7.03;;
12792;SDS011;6460;42.684;23.260;2023-04-25T04:13:30;8.70;;;7.20;;
12792;SDS011;6460;42.684;23.260;2023-04-25T04:15:57;9.00;;;6.80;;
12792;SDS011;6460;42.684;23.260;2023-04-25T04:18:24;9.47;;;6.97;;
12792;SDS011;6460;42.684;23.260;2023-04-25T04:20:51;8.23;;;6.27;;
12792;SDS011;6460;42.684;23.260;2023-04-25T04:23:19;8.60;;;6.90;;
12792;SDS011;6460;42.684;23.260;2023-04-25T04:25:47;9.60;;;7.10;;
12792;SDS011;6460;42.684;23.260;2023-04-25T04:28:15;10.10;;;6.97;;
12792;SDS011;6460;42.684;23.260;2023-04-25T04:30:44;8.33;;;6.47;;
12792;SDS011;6460;42.684;23.260;2023-04-25T04:33:12;8.63;;;6.33;;
12792;SDS011;6460;42.684;23.260;2023-04-25T04:35:40;7.27;;;6.20;;
12792;SDS011;6460;42.684;23.260;2023-04-25T04:38:08;9.07;;;6.57;;
12792;SDS011;6460;42.684;23.260;2023-04-25T04:40:36;8.07;;;6.53;;
12792;SDS011;6460;42.684;23.260;2023-04-25T04:43:03;8.13;;;6.33;;
12792;SDS011;6460;42.684;23.260;2023-04-25T04:45:31;8.67;;;6.93;;
12792;SDS011;6460;42.684;23.260;2023-04-25T04:48:00;7.57;;;6.23;;
12792;SDS011;6460;42.684;23.260;2023-04-25T04:50:27;10.93;;;8.20;;
12792;SDS011;6460;42.684;23.260;2023-04-25T04:52:54;12.33;;;8.07;;
12792;SDS011;6460;42.684;23.260;2023-04-25T04:55:21;11.57;;;8.20;;
12792;SDS011;6460;42.684;23.260;2023-04-25T04:57:48;9.33;;;7.60;;
12792;SDS011;6460;42.684;23.260;2023-04-25T05:00:15;13.03;;;10.00;;
12792;SDS011;6460;42.684;23.260;2023-04-25T05:02:43;10.27;;;8.87;;
12792;SDS011;6460;42.684;23.260;2023-04-25T05:05:11;11.23;;;9.67;;
12792;SDS011;6460;42.684;23.260;2023-04-25T05:07:38;10.83;;;8.43;;
12792;SDS011;6460;42.684;23.260;2023-04-25T05:10:06;10.53;;;8.47;;
12792;SDS011;6460;42.684;23.260;2023-04-25T05:12:34;10.97;;;8.23;;
12792;SDS011;6460;42.684;23.260;2023-04-25T05:15:01;11.40;;;8.60;;
12792;SDS011;6460;42.684;23.260;2023-04-25T05:17:28;11.97;;;9.03;;
12792;SDS011;6460;42.684;23.260;2023-04-25T05:19:55;9.77;;;7.80;;
12792;SDS011;6460;42.684;23.260;2023-04-25T05:22:24;10.43;;;8.03;;
12792;SDS011;6460;42.684;23.260;2023-04-25T05:24:51;9.77;;;7.57;;
12792;SDS011;6460;42.684;23.260;2023-04-25T05:27:19;9.80;;;7.70;;
12792;SDS011;6460;42.684;23.260;2023-04-25T05:29:46;9.67;;;7.83;;
12792;SDS011;6460;42.684;23.260;2023-04-25T05:32:14;8.20;;;7.03;;
12792;SDS011;6460;42.684;23.260;2023-04-25T05:34:41;9.57;;;7.30;;
12792;SDS011;6460;42.684;23.260;2023-04-25T05:37:08;19.30;;;17.17;;
12792;SDS011;6460;42.684;23.260;2023-04-25T05:39:36;16.50;;;13.70;;
12792;SDS011;6460;42.684;23.260;2023-04-25T05:42:04;14.37;;;12.00;;
12792;SDS011;6460;42.684;23.260;2023-04-25T05:44:31;14.13;;;9.73;;
12792;SDS011;6460;42.684;23.260;2023-04-25T05:46:58;9.67;;;7.80;;
12792;SDS011;6460;42.684;23.260;2023-04-25T05:49:25;9.77;;;7.70;;
12792;SDS011;6460;42.684;23.260;2023-04-25T05:51:53;14.70;;;7.27;;
12792;SDS011;6460;42.684;23.260;2023-04-25T05:54:20;10.60;;;7.17;;
12792;SDS011;6460;42.684;23.260;2023-04-25T05:56:48;9.77;;;7.00;;
12792;SDS011;6460;42.684;23.260;2023-04-25T05:59:16;8.20;;;5.80;;
12792;SDS011;6460;42.684;23.260;2023-04-25T06:01:43;7.67;;;6.47;;
12792;SDS011;6460;42.684;23.260;2023-04-25T06:04:11;18.60;;;13.80;;
12792;SDS011;6460;42.684;23.260;2023-04-25T06:06:39;8.20;;;6.97;;
12792;SDS011;6460;42.684;23.260;2023-04-25T06:09:08;9.97;;;6.03;;
12792;SDS011;6460;42.684;23.260;2023-04-25T06:11:35;11.37;;;7.30;;
12792;SDS011;6460;42.684;23.260;2023-04-25T06:14:03;14.47;;;8.63;;
12792;SDS011;6460;42.684;23.260;2023-04-25T06:16:30;9.97;;;7.77;;
12792;SDS011;6460;42.684;23.260;2023-04-25T06:18:57;7.27;;;6.37;;
12792;SDS011;6460;42.684;23.260;2023-04-25T06:21:24;8.37;;;6.20;;
12792;SDS011;6460;42.684;23.260;2023-04-25T06:23:52;7.80;;;6.23;;
12792;SDS011;6460;42.684;23.260;2023-04-25T06:26:19;7.67;;;6.73;;
12792;SDS011;6460;42.684;23.260;2023-04-25T06:28:46;7.40;;;6.37;;
12792;SDS011;6460;42.684;23.260;2023-04-25T06:31:14;8.97;;;7.73;;
12792;SDS011;6460;42.684;23.260;2023-04-25T06:33:41;8.40;;;7.27;;
12792;SDS011;6460;42.684;23.260;2023-04-25T06:36:08;11.10;;;7.63;;
12792;SDS011;6460;42.684;23.260;2023-04-25T06:38:36;12.07;;;8.53;;
12792;SDS011;6460;42.684;23.260;2023-04-25T06:41:03;9.80;;;7.83;;
12792;SDS011;6460;42.684;23.260;2023-04-25T06:43:30;9.87;;;8.13;;
12792;SDS011;6460;42.684;23.260;2023-04-25T06:45:58;11.37;;;9.03;;
12792;SDS011;6460;42.684;23.260;2023-04-25T06:48:27;12.37;;;8.63;;
12792;SDS011;6460;42.684;23.260;2023-04-25T06:50:55;9.80;;;8.23;;
12792;SDS011;6460;42.684;23.260;2023-04-25T06:53:22;12.57;;;8.63;;
12792;SDS011;6460;42.684;23.260;2023-04-25T06:55:49;11.37;;;8.57;;
12792;SDS011;6460;42.684;23.260;2023-04-25T06:58:16;13.03;;;9.27;;
12792;SDS011;6460;42.684;23.260;2023-04-25T07:00:43;12.87;;;9.40;;
12792;SDS011;6460;42.684;23.260;2023-04-25T07:03:11;10.67;;;9.07;;
12792;SDS011;6460;42.684;23.260;2023-04-25T07:05:39;11.87;;;8.73;;
12792;SDS011;6460;42.684;23.260;2023-04-25T07:08:07;8.93;;;8.00;;
12792;SDS011;6460;42.684;23.260;2023-04-25T07:10:34;9.70;;;7.93;;
12792;SDS011;6460;42.684;23.260;2023-04-25T07:13:01;9.67;;;7.40;;
12792;SDS011;6460;42.684;23.260;2023-04-25T07:15:28;8.80;;;7.00;;
12792;SDS011;6460;42.684;23.260;2023-04-25T07:17:55;9.13;;;7.03;;
12792;SDS011;6460;42.684;23.260;2023-04-25T07:20:23;11.43;;;7.00;;
12792;SDS011;6460;42.684;23.260;2023-04-25T07:22:51;9.10;;;6.20;;
12792;SDS011;6460;42.684;23.260;2023-04-25T07:25:18;7.20;;;6.37;;
12792;SDS011;6460;42.684;23.260;2023-04-25T07:27:46;8.40;;;6.37;;
12792;SDS011;6460;42.684;23.260;2023-04-25T07:30:13;7.97;;;6.77;;
12792;SDS011;6460;42.684;23.260;2023-04-25T07:32:40;8.00;;;6.80;;
12792;SDS011;6460;42.684;23.260;2023-04-25T07:35:08;10.47;;;6.53;;
12792;SDS011;6460;42.684;23.260;2023-04-25T07:37:35;8.93;;;6.80;;
12792;SDS011;6460;42.684;23.260;2023-04-25T07:40:04;10.77;;;7.00;;
12792;SDS011;6460;42.684;23.260;2023-04-25T07:42:32;8.83;;;6.53;;
12792;SDS011;6460;42.684;23.260;2023-04-25T07:44:59;8.07;;;6.23;;
12792;SDS011;6460;42.684;23.260;2023-04-25T07:47:28;7.93;;;6.23;;
12792;SDS011;6460;42.684;23.260;2023-04-25T07:49:55;12.27;;;9.03;;
12792;SDS011;6460;42.684;23.260;2023-04-25T07:52:23;6.87;;;6.17;;
12792;SDS011;6460;42.684;23.260;2023-04-25T07:54:50;7.27;;;4.80;;
12792;SDS011;6460;42.684;23.260;2023-04-25T07:57:18;5.73;;;5.03;;
12792;SDS011;6460;42.684;23.260;2023-04-25T07:59:46;7.33;;;5.00;;
12792;SDS011;6460;42.684;23.260;2023-04-25T08:02:13;5.93;;;4.00;;
12792;SDS011;6460;42.684;23.260;2023-04-25T08:04:40;7.83;;;5.20;;
12792;SDS011;6460;42.684;23.260;2023-04-25T08:07:07;5.03;;;4.53;;
12792;SDS011;6460;42.684;23.260;2023-04-25T08:09:34;6.37;;;5.20;;
12792;SDS011;6460;42.684;23.260;2023-04-25T08:12:01;5.40;;;4.50;;
12792;SDS011;6460;42.684;23.260;2023-04-25T08:14:30;2.93;;;2.63;;
12792;SDS011;6460;42.684;23.260;2023-04-25T08:17:01;5.63;;;3.20;;
12792;SDS011;6460;42.684;23.260;2023-04-25T08:19:29;2.73;;;2.20;;
12792;SDS011;6460;42.684;23.260;2023-04-25T08:21:56;2.30;;;2.10;;
12792;SDS011;6460;42.684;23.260;2023-04-25T08:24:24;3.63;;;2.10;;
12792;SDS011;6460;42.684;23.260;2023-04-25T08:26:51;2.43;;;2.23;;
12792;SDS011;6460;42.684;23.260;2023-04-25T08:29:19;2.83;;;2.30;;
12792;SDS011;6460;42.684;23.260;2023-04-25T08:31:49;2.50;;;2.30;;
12792;SDS011;6460;42.684;23.260;2023-04-25T08:34:17;3.40;;;2.50;;
12792;SDS011;6460;42.684;23.260;2023-04-25T08:36:45;3.63;;;2.00;;
12792;SDS011;6460;42.684;23.260;2023-04-25T08:39:12;2.87;;;2.57;;
12792;SDS011;6460;42.684;23.260;2023-04-25T08:41:40;3.03;;;2.40;;
12792;SDS011;6460;42.684;23.260;2023-04-25T08:44:08;3.40;;;2.40;;
12792;SDS011;6460;42.684;23.260;2023-04-25T08:46:37;4.30;;;3.83;;
12792;SDS011;6460;42.684;23.260;2023-04-25T08:49:07;5.63;;;4.47;;
12792;SDS011;6460;42.684;23.260;2023-04-25T08:51:36;6.07;;;4.10;;
12792;SDS011;6460;42.684;23.260;2023-04-25T08:54:10;7.23;;;6.53;;
12792;SDS011;6460;42.684;23.260;2023-04-25T08:56:40;8.03;;;7.23;;
12792;SDS011;6460;42.684;23.260;2023-04-25T08:59:10;3.80;;;2.40;;
12792;SDS011;6460;42.684;23.260;2023-04-25T09:01:37;2.80;;;1.60;;
12792;SDS011;6460;42.684;23.260;2023-04-25T09:04:04;2.03;;;1.80;;
12792;SDS011;6460;42.684;23.260;2023-04-25T09:06:33;2.10;;;1.90;;
12792;SDS011;6460;42.684;23.260;2023-04-25T09:09:04;2.73;;;2.10;;
12792;SDS011;6460;42.684;23.260;2023-04-25T09:11:32;2.60;;;1.73;;
12792;SDS011;6460;42.684;23.260;2023-04-25T09:14:11;2.40;;;2.00;;
12792;SDS011;6460;42.684;23.260;2023-04-25T09:19:27;2.63;;;2.03;;
12792;SDS011;6460;42.684;23.260;2023-04-25T09:21:55;2.27;;;1.53;;
12792;SDS011;6460;42.684;23.260;2023-04-25T09:24:33;1.90;;;1.70;;
12792;SDS011;6460;42.684;23.260;2023-04-25T09:27:03;2.33;;;1.30;;
12792;SDS011;6460;42.684;23.260;2023-04-25T09:29:31;1.33;;;1.23;;
12792;SDS011;6460;42.684;23.260;2023-04-25T09:32:14;1.17;;;1.07;;
12792;SDS011;6460;42.684;23.260;2023-04-25T09:34:46;1.20;;;1.10;;
12792;SDS011;6460;42.684;23.260;2023-04-25T09:37:17;2.70;;;1.40;;
12792;SDS011;6460;42.684;23.260;2023-04-25T09:39:45;1.10;;;1.00;;
12792;SDS011;6460;42.684;23.260;2023-04-25T09:42:13;1.00;;;0.90;;
12792;SDS011;6460;42.684;23.260;2023-04-25T09:44:44;3.80;;;1.13;;
12792;SDS011;6460;42.684;23.260;2023-04-25T09:47:11;1.10;;;1.00;;
12792;SDS011;6460;42.684;23.260;2023-04-25T09:49:41;1.73;;;1.00;;
12792;SDS011;6460;42.684;23.260;2023-04-25T09:52:13;1.70;;;1.60;;
12792;SDS011;6460;42.684;23.260;2023-04-25T09:54:41;3.10;;;2.80;;
12792;SDS011;6460;42.684;23.260;2023-04-25T09:57:10;3.10;;;2.80;;
12792;SDS011;6460;42.684;23.260;2023-04-25T09:59:39;2.67;;;2.47;;
12792;SDS011;6460;42.684;23.260;2023-04-25T10:02:09;3.10;;;2.80;;
12792;SDS011;6460;42.684;23.260;2023-04-25T10:04:37;3.13;;;2.83;;
12792;SDS011;6460;42.684;23.260;2023-04-25T10:07:05;2.40;;;2.20;;
12792;SDS011;6460;42.684;23.260;2023-04-25T10:09:36;6.57;;;2.63;;
12792;SDS011;6460;42.684;23.260;2023-04-25T10:12:04;0.97;;;0.80;;
12792;SDS011;6460;42.684;23.260;2023-04-25T10:14:33;1.00;;;0.90;;
12792;SDS011;6460;42.684;23.260;2023-04-25T10:17:00;1.00;;;0.90;;
12792;SDS011;6460;42.684;23.260;2023-04-25T10:19:28;3.03;;;1.23;;
12792;SDS011;6460;42.684;23.260;2023-04-25T10:21:58;1.13;;;1.03;;
12792;SDS011;6460;42.684;23.260;2023-04-25T10:24:36;1.20;;;1.10;;
12792;SDS011;6460;42.684;23.260;2023-04-25T10:27:04;1.00;;;0.90;;
12792;SDS011;6460;42.684;23.260;2023-04-25T10:29:32;1.30;;;1.00;;
12792;SDS011;6460;42.684;23.260;2023-04-25T10:31:59;1.20;;;1.03;;
12792;SDS011;6460;42.684;23.260;2023-04-25T10:34:37;1.73;;;1.03;;
12792;SDS011;6460;42.684;23.260;2023-04-25T10:37:08;5.07;;;1.40;;
12792;SDS011;6460;42.684;23.260;2023-04-25T10:39:38;1.83;;;1.53;;
12792;SDS011;6460;42.684;23.260;2023-04-25T10:42:06;1.63;;;1.20;;
12792;SDS011;6460;42.684;23.260;2023-04-25T10:44:34;1.00;;;0.90;;
12792;SDS011;6460;42.684;23.260;2023-04-25T10:47:05;0.70;;;0.70;;
12792;SDS011;6460;42.684;23.260;2023-04-25T10:49:33;1.77;;;1.00;;
12792;SDS011;6460;42.684;23.260;2023-04-25T10:52:11;1.20;;;1.00;;
12792;SDS011;6460;42.684;23.260;2023-04-25T10:54:47;1.20;;;0.90;;
12792;SDS011;6460;42.684;23.260;2023-04-25T10:57:31;2.40;;;0.90;;
12792;SDS011;6460;42.684;23.260;2023-04-25T11:00:06;2.10;;;1.00;;
12792;SDS011;6460;42.684;23.260;2023-04-25T11:02:41;1.10;;;0.70;;
12792;SDS011;6460;42.684;23.260;2023-04-25T11:05:10;2.03;;;0.90;;
12792;SDS011;6460;42.684;23.260;2023-04-25T11:07:49;1.57;;;0.80;;
12792;SDS011;6460;42.684;23.260;2023-04-25T11:10:18;2.47;;;0.87;;
12792;SDS011;6460;42.684;23.260;2023-04-25T11:12:46;1.03;;;0.90;;
12792;SDS011;6460;42.684;23.260;2023-04-25T11:15:13;1.57;;;0.90;;
12792;SDS011;6460;42.684;23.260;2023-04-25T11:17:41;1.47;;;0.70;;
12792;SDS011;6460;42.684;23.260;2023-04-25T11:20:10;2.13;;;1.00;;
12792;SDS011;6460;42.684;23.260;2023-04-25T11:22:40;0.83;;;0.80;;
12792;SDS011;6460;42.684;23.260;2023-04-25T11:25:08;1.23;;;0.90;;
12792;SDS011;6460;42.684;23.260;2023-04-25T11:27:50;1.37;;;0.90;;
12792;SDS011;6460;42.684;23.260;2023-04-25T11:30:18;1.13;;;1.03;;
12792;SDS011;6460;42.684;23.260;2023-04-25T11:32:46;1.73;;;1.23;;
12792;SDS011;6460;42.684;23.260;2023-04-25T11:35:13;1.90;;;1.10;;
12792;SDS011;6460;42.684;23.260;2023-04-25T11:37:41;1.30;;;1.10;;
12792;SDS011;6460;42.684;23.260;2023-04-25T11:40:09;1.90;;;1.20;;
12792;SDS011;6460;42.684;23.260;2023-04-25T11:42:37;0.60;;;0.60;;
12792;SDS011;6460;42.684;23.260;2023-04-25T11:45:07;0.90;;;0.90;;
12792;SDS011;6460;42.684;23.260;2023-04-25T11:47:34;1.00;;;0.90;;
12792;SDS011;6460;42.684;23.260;2023-04-25T11:50:02;1.17;;;1.00;;
12792;SDS011;6460;42.684;23.260;2023-04-25T11:52:37;1.10;;;1.00;;
12792;SDS011;6460;42.684;23.260;2023-04-25T11:55:09;1.40;;;1.00;;
12792;SDS011;6460;42.684;23.260;2023-04-25T11:57:37;1.40;;;1.00;;
12792;SDS011;6460;42.684;23.260;2023-04-25T12:00:09;2.63;;;1.27;;
12792;SDS011;6460;42.684;23.260;2023-04-25T12:02:42;1.63;;;1.00;;
12792;SDS011;6460;42.684;23.260;2023-04-25T12:05:09;1.13;;;1.00;;
12792;SDS011;6460;42.684;23.260;2023-04-25T12:07:37;1.63;;;1.30;;
12792;SDS011;6460;42.684;23.260;2023-04-25T12:10:04;1.30;;;1.20;;
12792;SDS011;6460;42.684;23.260;2023-04-25T12:12:33;1.53;;;1.10;;
12792;SDS011;6460;42.684;23.260;2023-04-25T12:15:09;17.50;;;12.40;;
12792;SDS011;6460;42.684;23.260;2023-04-25T12:17:38;8.97;;;7.37;;
12792;SDS011;6460;42.684;23.260;2023-04-25T12:20:08;0.90;;;0.90;;
12792;SDS011;6460;42.684;23.260;2023-04-25T12:22:36;1.03;;;1.00;;
12792;SDS011;6460;42.684;23.260;2023-04-25T12:25:03;0.93;;;0.80;;
12792;SDS011;6460;42.684;23.260;2023-04-25T12:27:31;1.57;;;0.83;;
12792;SDS011;6460;42.684;23.260;2023-04-25T12:29:58;0.97;;;0.90;;
12792;SDS011;6460;42.684;23.260;2023-04-25T12:32:27;1.53;;;1.03;;
12792;SDS011;6460;42.684;23.260;2023-04-25T12:34:53;3.50;;;1.10;;
12792;SDS011;6460;42.684;23.260;2023-04-25T12:37:20;1.20;;;1.03;;
12792;SDS011;6460;42.684;23.260;2023-04-25T12:39:47;1.03;;;0.90;;
12792;SDS011;6460;42.684;23.260;2023-04-25T12:42:14;1.30;;;1.20;;
12792;SDS011;6460;42.684;23.260;2023-04-25T12:44:41;1.63;;;1.07;;
12792;SDS011;6460;42.684;23.260;2023-04-25T12:47:08;1.83;;;0.90;;
12792;SDS011;6460;42.684;23.260;2023-04-25T12:49:37;1.30;;;1.00;;
12792;SDS011;6460;42.684;23.260;2023-04-25T12:52:04;0.97;;;0.83;;
12792;SDS011;6460;42.684;23.260;2023-04-25T12:54:31;1.07;;;0.93;;
12792;SDS011;6460;42.684;23.260;2023-04-25T12:56:58;4.00;;;1.30;;
12792;SDS011;6460;42.684;23.260;2023-04-25T12:59:26;3.43;;;1.50;;
12792;SDS011;6460;42.684;23.260;2023-04-25T13:01:53;1.57;;;1.30;;
12792;SDS011;6460;42.684;23.260;2023-04-25T13:04:20;1.87;;;1.40;;
12792;SDS011;6460;42.684;23.260;2023-04-25T13:06:48;4.97;;;1.40;;
12792;SDS011;6460;42.684;23.260;2023-04-25T13:09:15;1.87;;;1.47;;
12792;SDS011;6460;42.684;23.260;2023-04-25T13:11:42;2.67;;;1.43;;
12792;SDS011;6460;42.684;23.260;2023-04-25T13:14:11;1.70;;;1.57;;
12792;SDS011;6460;42.684;23.260;2023-04-25T13:16:38;2.33;;;1.50;;
12792;SDS011;6460;42.684;23.260;2023-04-25T13:19:04;3.00;;;2.10;;
12792;SDS011;6460;42.684;23.260;2023-04-25T13:21:33;3.20;;;2.23;;
12792;SDS011;6460;42.684;23.260;2023-04-25T13:24:01;2.80;;;1.80;;
12792;SDS011;6460;42.684;23.260;2023-04-25T13:26:28;3.77;;;2.30;;
12792;SDS011;6460;42.684;23.260;2023-04-25T13:28:55;6.07;;;2.10;;
12792;SDS011;6460;42.684;23.260;2023-04-25T13:31:22;4.27;;;2.53;;
12792;SDS011;6460;42.684;23.260;2023-04-25T13:33:49;3.70;;;2.00;;
12792;SDS011;6460;42.684;23.260;2023-04-25T13:36:16;3.00;;;2.03;;
12792;SDS011;6460;42.684;23.260;2023-04-25T13:38:43;4.17;;;2.43;;
12792;SDS011;6460;42.684;23.260;2023-04-25T13:41:13;5.40;;;4.90;;
12792;SDS011;6460;42.684;23.260;2023-04-25T13:43:43;5.83;;;3.70;;
12792;SDS011;6460;42.684;23.260;2023-04-25T13:46:11;3.47;;;2.47;;
12792;SDS011;6460;42.684;23.260;2023-04-25T13:48:42;3.80;;;2.90;;
12792;SDS011;6460;42.684;23.260;2023-04-25T13:51:13;3.00;;;2.20;;
12792;SDS011;6460;42.684;23.260;2023-04-25T13:53:41;4.17;;;2.13;;
12792;SDS011;6460;42.684;23.260;2023-04-25T13:56:07;3.00;;;1.93;;
12792;SDS011;6460;42.684;23.260;2023-04-25T13:58:35;3.70;;;1.70;;
12792;SDS011;6460;42.684;23.260;2023-04-25T14:01:02;2.07;;;1.80;;
12792;SDS011;6460;42.684;23.260;2023-04-25T14:03:30;2.00;;;1.70;;
12792;SDS011;6460;42.684;23.260;2023-04-25T14:05:57;3.13;;;1.50;;
12792;SDS011;6460;42.684;23.260;2023-04-25T14:08:24;3.30;;;2.10;;
12792;SDS011;6460;42.684;23.260;2023-04-25T14:10:50;5.37;;;3.13;;
12792;SDS011;6460;42.684;23.260;2023-04-25T14:13:17;1.70;;;1.50;;
12792;SDS011;6460;42.684;23.260;2023-04-25T14:15:45;1.73;;;1.30;;
12792;SDS011;6460;42.684;23.260;2023-04-25T14:18:12;1.57;;;1.47;;
12792;SDS011;6460;42.684;23.260;2023-04-25T14:20:39;0.90;;;0.90;;
12792;SDS011;6460;42.684;23.260;2023-04-25T14:23:06;0.97;;;0.97;;
12792;SDS011;6460;42.684;23.260;2023-04-25T14:25:34;1.60;;;0.70;;
12792;SDS011;6460;42.684;23.260;2023-04-25T14:28:02;1.00;;;0.90;;
12792;SDS011;6460;42.684;23.260;2023-04-25T14:30:29;1.13;;;1.03;;
12792;SDS011;6460;42.684;23.260;2023-04-25T14:32:58;1.63;;;1.20;;
12792;SDS011;6460;42.684;23.260;2023-04-25T14:35:25;1.00;;;1.00;;
12792;SDS011;6460;42.684;23.260;2023-04-25T14:37:52;1.90;;;1.20;;
12792;SDS011;6460;42.684;23.260;2023-04-25T14:40:21;1.10;;;1.00;;
12792;SDS011;6460;42.684;23.260;2023-04-25T14:42:48;1.40;;;1.20;;
12792;SDS011;6460;42.684;23.260;2023-04-25T14:45:16;1.90;;;1.10;;
12792;SDS011;6460;42.684;23.260;2023-04-25T14:47:43;1.67;;;1.40;;
12792;SDS011;6460;42.684;23.260;2023-04-25T14:50:12;1.60;;;1.30;;
12792;SDS011;6460;42.684;23.260;2023-04-25T14:52:39;1.30;;;1.20;;
12792;SDS011;6460;42.684;23.260;2023-04-25T14:55:06;2.17;;;1.50;;